Time;durP1;ratioP1;P1;durP2;ratioP2;P2;SDS_P1;SDS_P2;PMS_P1;PMS_P2;Temp;Humidity;BMP_temperature;BMP_pressure;BME280_temperature;BME280_humidity;BME280_pressure;Samples;Min_cycle;Max_cycle;Signal;HPM_P1;HPM_P2
2024/01/01 00:04:19;;;;;;;;;;;23.30;49.30;;;;;;219279;1283;22633;-48
2024/01/01 00:09:24;;;;;;;;;;;23.20;49.60;;;;;;219189;1286;24231;-47
2024/01/01 00:14:28;;;;;;;;;;;23.20;49.70;;;;;;219201;1280;25408;-48
2024/01/01 00:19:34;;;;;;;;;;;23.10;50.00;;;;;;219116;1283;24278;-49
2024/01/01 00:24:38;;;;;;;;;;;23.00;49.90;;;;;;219151;1283;24228;-49
2024/01/01 00:29:42;;;;;;;;;;;23.20;49.60;;;;;;219258;1283;22524;-49
2024/01/01 00:34:47;;;;;;;;;;;23.40;49.10;;;;;;219348;1288;22648;-49
2024/01/01 00:39:51;;;;;;;;;;;23.60;49.30;;;;;;219281;1285;25283;-48
2024/01/01 00:44:56;;;;;;;;;;;23.70;48.70;;;;;;219095;1276;25397;-46
2024/01/01 00:50:01;;;;;;;;;;;23.80;48.50;;;;;;219019;1288;24196;-48
2024/01/01 00:55:07;;;;;;;;;;;23.80;48.50;;;;;;219205;1283;24211;-48
2024/01/01 01:00:12;;;;;;;;;;;23.60;48.90;;;;;;219336;1283;22546;-50
2024/01/01 01:05:19;;;;;;;;;;;23.50;49.30;;;;;;219102;1283;24287;-45
2024/01/01 01:10:23;;;;;;;;;;;23.40;49.30;;;;;;219443;1286;22648;-50
2024/01/01 01:15:28;;;;;;;;;;;23.50;49.20;;;;;;220004;1283;22562;-45
2024/01/01 01:20:32;;;;;;;;;;;23.50;49.00;;;;;;220837;1282;22506;-49
2024/01/01 01:25:37;;;;;;;;;;;23.50;49.30;;;;;;219404;1283;22514;-47
2024/01/01 01:30:42;;;;;;;;;;;23.40;49.10;;;;;;219270;1285;25287;-48
2024/01/01 01:35:49;;;;;;;;;;;23.30;49.20;;;;;;219167;1288;22562;-46
2024/01/01 01:40:55;;;;;;;;;;;23.30;49.80;;;;;;219120;1273;22939;-46
2024/01/01 01:45:59;;;;;;;;;;;23.10;49.60;;;;;;219240;1283;22766;-49
2024/01/01 01:51:04;;;;;;;;;;;23.10;49.50;;;;;;219222;1280;22520;-49
2024/01/01 01:56:09;;;;;;;;;;;23.10;49.90;;;;;;218926;1281;25334;-47
2024/01/01 02:01:13;;;;;;;;;;;23.30;49.30;;;;;;219086;1273;25227;-47
2024/01/01 02:06:18;;;;;;;;;;;23.40;49.00;;;;;;219081;1280;22520;-45
2024/01/01 02:11:23;;;;;;;;;;;23.60;48.20;;;;;;219386;1285;24253;-47
2024/01/01 02:16:29;;;;;;;;;;;23.70;48.60;;;;;;219232;1286;22518;-45
2024/01/01 02:21:33;;;;;;;;;;;23.60;48.40;;;;;;219221;1280;22523;-46
2024/01/01 02:26:38;;;;;;;;;;;23.40;49.60;;;;;;219250;1273;22576;-49
2024/01/01 02:31:42;;;;;;;;;;;23.50;49.50;;;;;;219215;1287;22517;-48
2024/01/01 02:36:47;;;;;;;;;;;23.50;49.40;;;;;;219213;1280;23035;-49
2024/01/01 02:41:51;;;;;;;;;;;23.50;49.40;;;;;;219534;1283;24275;-47
2024/01/01 02:46:56;;;;;;;;;;;23.50;49.60;;;;;;219415;1285;22636;-47
2024/01/01 02:52:00;;;;;;;;;;;23.50;48.40;;;;;;219169;1288;22530;-48
2024/01/01 02:57:04;;;;;;;;;;;23.40;49.30;;;;;;219139;1288;22521;-47
2024/01/01 03:02:09;;;;;;;;;;;23.30;48.90;;;;;;219056;1280;24045;-48
2024/01/01 03:07:15;;;;;;;;;;;23.30;49.20;;;;;;219228;1280;26509;-46
2024/01/01 03:12:19;;;;;;;;;;;23.20;49.30;;;;;;219275;1288;22641;-50
2024/01/01 03:17:23;;;;;;;;;;;23.10;49.70;;;;;;219358;1283;25417;-48
2024/01/01 03:22:28;;;;;;;;;;;23.00;49.50;;;;;;219140;1286;23408;-47
2024/01/01 03:27:32;;;;;;;;;;;23.10;49.40;;;;;;219187;1286;22978;-48
2024/01/01 03:32:37;;;;;;;;;;;23.30;49.00;;;;;;219170;1283;25365;-47
2024/01/01 03:37:41;;;;;;;;;;;23.50;48.70;;;;;;219219;1283;22655;-47
2024/01/01 03:42:46;;;;;;;;;;;23.60;48.40;;;;;;218945;1283;22646;-51
2024/01/01 03:47:50;;;;;;;;;;;23.70;48.20;;;;;;219232;1270;26305;-49
2024/01/01 03:52:55;;;;;;;;;;;23.70;48.30;;;;;;219107;1285;24672;-47
2024/01/01 03:58:00;;;;;;;;;;;23.50;48.90;;;;;;219178;1289;22527;-46
2024/01/01 04:03:04;;;;;;;;;;;23.50;49.50;;;;;;219040;1288;22518;-49
2024/01/01 04:08:09;;;;;;;;;;;23.50;48.80;;;;;;219341;1289;22520;-47
2024/01/01 04:13:13;;;;;;;;;;;23.50;49.10;;;;;;219122;1279;23051;-46
2024/01/01 04:18:17;;;;;;;;;;;23.50;49.30;;;;;;219168;1286;22581;-46
2024/01/01 04:23:22;;;;;;;;;;;23.50;49.00;;;;;;219213;1286;22518;-48
2024/01/01 04:28:27;;;;;;;;;;;23.40;48.70;;;;;;219011;1288;22514;-48
2024/01/01 04:33:31;;;;;;;;;;;23.30;49.20;;;;;;218784;1280;25333;-47
2024/01/01 04:38:35;;;;;;;;;;;23.20;49.00;;;;;;219005;1288;24226;-47
2024/01/01 04:43:44;;;;;;;;;;;23.20;49.00;;;;;;219361;1288;22534;-49
2024/01/01 04:48:48;;;;;;;;;;;23.10;49.40;;;;;;218908;1287;22516;-45
2024/01/01 04:53:53;;;;;;;;;;;23.10;49.60;;;;;;218960;1283;24644;-48
2024/01/01 04:58:58;;;;;;;;;;;23.20;49.00;;;;;;219171;1285;24197;-47
2024/01/01 05:04:02;;;;;;;;;;;23.40;48.50;;;;;;219278;1285;23048;-47
2024/01/01 05:09:07;;;;;;;;;;;23.60;48.10;;;;;;218948;1285;22565;-46
2024/01/01 05:14:12;;;;;;;;;;;23.70;48.20;;;;;;219252;1280;22514;-49
2024/01/01 05:19:17;;;;;;;;;;;23.60;48.20;;;;;;219076;1273;22656;-46
2024/01/01 05:24:21;;;;;;;;;;;23.60;48.50;;;;;;219138;1288;22594;-46
2024/01/01 05:29:25;;;;;;;;;;;23.50;48.30;;;;;;219073;1287;22661;-48
2024/01/01 05:34:30;;;;;;;;;;;23.50;48.40;;;;;;218931;1285;22515;-45
2024/01/01 05:39:35;;;;;;;;;;;23.40;48.10;;;;;;219117;1286;25666;-46
2024/01/01 05:44:39;;;;;;;;;;;23.40;48.20;;;;;;219168;1288;23833;-46
2024/01/01 05:49:44;;;;;;;;;;;23.50;48.10;;;;;;219089;1276;24400;-46
2024/01/01 05:54:48;;;;;;;;;;;23.40;48.00;;;;;;219378;1285;23939;-46
2024/01/01 05:59:53;;;;;;;;;;;23.30;48.20;;;;;;219072;1283;24256;-48
2024/01/01 06:04:57;;;;;;;;;;;23.30;48.40;;;;;;219150;1287;22574;-46
2024/01/01 06:10:03;;;;;;;;;;;23.20;48.50;;;;;;219120;1282;25337;-47
2024/01/01 06:15:07;;;;;;;;;;;23.10;48.50;;;;;;219050;1288;25251;-46
2024/01/01 06:20:12;;;;;;;;;;;23.10;48.60;;;;;;218972;1283;24400;-45
2024/01/01 06:25:17;;;;;;;;;;;23.10;48.60;;;;;;218779;1286;613201;-46
2024/01/01 06:30:22;;;;;;;;;;;23.00;48.70;;;;;;219044;1285;22989;-46
2024/01/01 06:35:30;;;;;;;;;;;22.90;49.20;;;;;;219053;1284;24243;-50
2024/01/01 06:40:34;;;;;;;;;;;22.80;49.10;;;;;;219253;1280;22520;-46
2024/01/01 06:45:39;;;;;;;;;;;22.80;49.10;;;;;;218965;1285;22554;-45
2024/01/01 06:50:43;;;;;;;;;;;22.70;49.10;;;;;;219214;1286;24230;-50
2024/01/01 06:55:51;;;;;;;;;;;22.70;49.20;;;;;;219222;1286;24222;-45
2024/01/01 07:00:55;;;;;;;;;;;23.00;48.60;;;;;;219107;1283;22517;-46
2024/01/01 07:06:00;;;;;;;;;;;23.30;48.40;;;;;;219234;1279;22608;-46
2024/01/01 07:11:04;;;;;;;;;;;23.60;47.70;;;;;;219097;1286;22557;-45
2024/01/01 07:16:09;;;;;;;;;;;23.70;47.40;;;;;;219202;1286;22541;-46
2024/01/01 07:21:14;;;;;;;;;;;23.70;47.40;;;;;;219409;1283;22905;-49
2024/01/01 07:26:18;;;;;;;;;;;23.40;48.00;;;;;;219087;1283;22530;-46
2024/01/01 07:31:23;;;;;;;;;;;23.40;48.10;;;;;;219298;1286;23813;-48
2024/01/01 07:36:27;;;;;;;;;;;23.40;48.00;;;;;;219124;1288;25281;-48
2024/01/01 07:41:31;;;;;;;;;;;23.40;47.90;;;;;;219222;1280;22544;-46
2024/01/01 07:46:36;;;;;;;;;;;23.30;47.80;;;;;;219146;1281;24096;-51
2024/01/01 07:51:40;;;;;;;;;;;23.30;48.00;;;;;;219271;1282;25408;-46
2024/01/01 07:56:47;;;;;;;;;;;23.20;48.20;;;;;;219286;1274;22543;-46
2024/01/01 08:01:52;;;;;;;;;;;23.10;48.10;;;;;;219051;1288;22514;-50
2024/01/01 08:06:56;;;;;;;;;;;23.00;48.30;;;;;;218961;1288;22668;-46
2024/01/01 08:12:01;;;;;;;;;;;23.00;48.40;;;;;;219009;1286;24412;-46
2024/01/01 08:17:05;;;;;;;;;;;22.90;48.50;;;;;;218678;1280;24371;-46
2024/01/01 08:22:10;;;;;;;;;;;22.80;48.50;;;;;;218852;1289;24403;-47
2024/01/01 08:27:14;;;;;;;;;;;22.80;48.70;;;;;;218764;1289;24262;-46
2024/01/01 08:32:18;;;;;;;;;;;22.80;48.80;;;;;;218807;1289;22811;-47
2024/01/01 08:37:23;;;;;;;;;;;22.70;48.80;;;;;;218890;1289;24084;-48
2024/01/01 08:42:27;;;;;;;;;;;22.60;48.90;;;;;;218681;1283;24231;-44
2024/01/01 08:47:31;;;;;;;;;;;22.60;49.10;;;;;;219218;1289;22556;-46
2024/01/01 08:52:36;;;;;;;;;;;22.60;49.40;;;;;;219086;1286;22572;-51
2024/01/01 08:57:42;;;;;;;;;;;22.80;48.80;;;;;;218923;1289;24237;-46
2024/01/01 09:02:46;;;;;;;;;;;23.10;48.20;;;;;;218626;1283;23015;-45
2024/01/01 09:07:51;;;;;;;;;;;23.40;47.70;;;;;;218938;1287;24324;-46
2024/01/01 09:12:56;;;;;;;;;;;23.60;47.30;;;;;;219068;1283;22575;-47
2024/01/01 09:18:00;;;;;;;;;;;23.60;47.00;;;;;;218896;1277;25350;-47
2024/01/01 09:23:06;;;;;;;;;;;23.40;47.60;;;;;;218982;1289;23570;-46
2024/01/01 09:28:10;;;;;;;;;;;23.40;47.80;;;;;;219087;1282;22550;-47
2024/01/01 09:33:15;;;;;;;;;;;23.30;48.20;;;;;;219200;1285;22519;-51
2024/01/01 09:38:19;;;;;;;;;;;23.30;47.70;;;;;;218893;1285;22525;-49
2024/01/01 09:43:24;;;;;;;;;;;23.30;47.70;;;;;;219138;1274;25356;-49
2024/01/01 09:48:31;;;;;;;;;;;23.30;47.90;;;;;;218979;1288;24218;-48
2024/01/01 09:53:36;;;;;;;;;;;23.20;47.80;;;;;;219801;1286;22797;-48
2024/01/01 09:58:43;;;;;;;;;;;23.10;48.10;;;;;;219248;1286;22675;-49
2024/01/01 10:04:04;;;;;;;;;;;23.00;48.60;;;;;;219042;1288;25291;-45
2024/01/01 10:09:11;;;;;;;;;;;22.90;48.30;;;;;;219067;1286;22611;-47
2024/01/01 10:14:16;;;;;;;;;;;22.90;48.90;;;;;;219129;1286;22573;-47
2024/01/01 10:19:21;;;;;;;;;;;22.80;48.90;;;;;;219238;1287;22541;-50
2024/01/01 10:24:25;;;;;;;;;;;22.70;48.60;;;;;;219249;1283;22605;-45
2024/01/01 10:29:37;;;;;;;;;;;22.70;48.80;;;;;;219147;1287;24228;-47
2024/01/01 10:34:42;;;;;;;;;;;22.70;48.80;;;;;;219209;1285;23904;-45
2024/01/01 10:39:47;;;;;;;;;;;22.70;48.90;;;;;;219253;1283;22803;-47
2024/01/01 10:44:51;;;;;;;;;;;22.90;48.60;;;;;;219161;1266;25316;-48
2024/01/01 10:50:00;;;;;;;;;;;23.10;48.00;;;;;;220989;1286;22543;-47
2024/01/01 10:55:17;;;;;;;;;;;23.50;47.40;;;;;;219442;1285;24284;-47
2024/01/01 11:00:51;;;;;;;;;;;23.60;47.30;;;;;;219317;1287;24380;-47
2024/01/01 11:05:55;;;;;;;;;;;23.60;47.10;;;;;;219086;1283;22680;-47
2024/01/01 11:11:19;;;;;;;;;;;23.60;47.40;;;;;;219331;1286;25398;-47
2024/01/01 11:16:24;;;;;;;;;;;23.30;48.00;;;;;;219175;1286;22648;-48
2024/01/01 11:21:30;;;;;;;;;;;23.40;47.90;;;;;;219103;1286;25562;-47
2024/01/01 11:26:35;;;;;;;;;;;23.30;47.80;;;;;;219260;1280;23045;-46
2024/01/01 11:31:40;;;;;;;;;;;23.30;47.70;;;;;;219100;1285;22893;-47
2024/01/01 11:36:45;;;;;;;;;;;23.30;47.90;;;;;;219252;1286;22528;-49
2024/01/01 11:41:50;;;;;;;;;;;23.30;47.90;;;;;;219196;1276;23509;-48
2024/01/01 11:46:55;;;;;;;;;;;23.20;48.10;;;;;;218891;1279;22521;-47
2024/01/01 11:52:02;;;;;;;;;;;23.10;48.20;;;;;;219067;1280;24389;-49
2024/01/01 11:57:06;;;;;;;;;;;23.00;48.30;;;;;;218470;1289;22524;-47
2024/01/01 12:02:11;;;;;;;;;;;23.00;48.70;;;;;;218884;1283;25401;-48
2024/01/01 12:07:31;;;;;;;;;;;22.90;48.40;;;;;;218444;1283;24241;-47
2024/01/01 12:12:41;;;;;;;;;;;22.90;48.50;;;;;;218803;1286;22527;-46
2024/01/01 12:17:52;;;;;;;;;;;22.80;48.70;;;;;;218706;1276;22661;-47
2024/01/01 12:23:12;;;;;;;;;;;22.70;48.70;;;;;;218681;1286;23940;-48
2024/01/01 12:28:17;;;;;;;;;;;22.70;48.80;;;;;;219024;1283;22532;-48
2024/01/01 12:33:21;;;;;;;;;;;22.60;48.90;;;;;;218982;1283;22595;-47
2024/01/01 12:38:28;;;;;;;;;;;22.70;49.00;;;;;;219169;1277;24359;-49
2024/01/01 12:43:33;;;;;;;;;;;22.70;49.00;;;;;;219104;1276;26656;-48
2024/01/01 12:48:37;;;;;;;;;;;22.80;48.60;;;;;;219103;1283;25128;-45
2024/01/01 12:53:42;;;;;;;;;;;23.20;48.10;;;;;;219116;1280;25404;-49
2024/01/01 12:58:47;;;;;;;;;;;23.50;47.60;;;;;;219067;1283;25355;-46
2024/01/01 13:03:52;;;;;;;;;;;23.60;47.20;;;;;;218945;1288;22590;-47
2024/01/01 13:08:57;;;;;;;;;;;23.70;47.50;;;;;;218943;1280;24218;-48
2024/01/01 13:14:01;;;;;;;;;;;23.60;47.30;;;;;;218940;1286;25235;-47
2024/01/01 13:19:06;;;;;;;;;;;23.50;47.70;;;;;;219402;1287;24303;-49
2024/01/01 13:24:10;;;;;;;;;;;23.40;47.70;;;;;;219122;1288;24340;-47
2024/01/01 13:29:15;;;;;;;;;;;23.40;47.70;;;;;;219045;1286;24473;-50
2024/01/01 13:34:22;;;;;;;;;;;23.20;48.00;;;;;;219101;1285;24217;-47
2024/01/01 13:39:27;;;;;;;;;;;23.20;48.10;;;;;;219319;1279;22624;-49
2024/01/01 13:44:31;;;;;;;;;;;23.10;48.30;;;;;;219316;1280;22531;-49
2024/01/01 13:49:36;;;;;;;;;;;23.10;48.40;;;;;;219124;1281;22524;-50
2024/01/01 13:54:41;;;;;;;;;;;23.10;48.60;;;;;;219004;1283;22868;-46
2024/01/01 13:59:46;;;;;;;;;;;23.10;48.30;;;;;;218944;1286;22664;-45
2024/01/01 14:04:51;;;;;;;;;;;23.10;48.10;;;;;;219403;1280;22531;-47
2024/01/01 14:09:55;;;;;;;;;;;23.10;48.50;;;;;;219247;1286;25189;-48
2024/01/01 14:15:01;;;;;;;;;;;23.00;48.20;;;;;;218890;1283;22517;-48
2024/01/01 14:20:06;;;;;;;;;;;22.90;48.30;;;;;;219254;1283;25427;-48
2024/01/01 14:25:11;;;;;;;;;;;22.90;48.40;;;;;;219242;1282;22532;-46
2024/01/01 14:30:15;;;;;;;;;;;22.80;48.80;;;;;;219180;1286;22543;-46
2024/01/01 14:35:20;;;;;;;;;;;22.80;48.70;;;;;;219087;1279;24247;-46
2024/01/01 14:40:24;;;;;;;;;;;22.70;48.80;;;;;;219331;1283;22524;-46
2024/01/01 14:45:29;;;;;;;;;;;22.70;48.70;;;;;;219087;1283;24222;-46
2024/01/01 14:50:38;;;;;;;;;;;22.90;48.20;;;;;;219292;1286;22829;-45
2024/01/01 14:55:43;;;;;;;;;;;23.30;47.80;;;;;;219199;1286;22530;-50
2024/01/01 15:00:47;;;;;;;;;;;23.70;46.40;;;;;;218371;1286;24375;-46
2024/01/01 15:05:52;;;;;;;;;;;23.70;46.70;;;;;;218523;1289;23476;-46
2024/01/01 15:11:00;;;;;;;;;;;23.70;46.70;;;;;;218035;1286;25849;-47
2024/01/01 15:16:04;;;;;;;;;;;23.70;46.80;;;;;;218579;1288;23184;-48
2024/01/01 15:21:09;;;;;;;;;;;23.60;46.90;;;;;;219417;1283;25337;-48
2024/01/01 15:26:17;;;;;;;;;;;23.50;46.90;;;;;;219142;1285;22668;-48
2024/01/01 15:31:22;;;;;;;;;;;23.40;47.20;;;;;;219049;1286;26279;-47
2024/01/01 15:36:27;;;;;;;;;;;23.30;47.30;;;;;;219224;1287;24253;-46
2024/01/01 15:41:32;;;;;;;;;;;23.20;47.20;;;;;;219172;1283;22532;-45
2024/01/01 15:46:36;;;;;;;;;;;23.10;47.20;;;;;;219075;1276;24233;-48
2024/01/01 15:51:41;;;;;;;;;;;23.10;47.30;;;;;;219305;1280;23170;-50
2024/01/01 15:56:48;;;;;;;;;;;23.00;47.60;;;;;;219244;1285;22574;-46
2024/01/01 16:01:53;;;;;;;;;;;22.90;48.00;;;;;;219314;1287;24198;-46
2024/01/01 16:06:59;;;;;;;;;;;22.80;47.70;;;;;;218949;1273;22531;-49
2024/01/01 16:12:04;;;;;;;;;;;22.80;47.30;;;;;;219246;1283;22514;-47
2024/01/01 16:17:09;;;;;;;;;;;22.70;47.80;;;;;;219215;1285;23535;-46
2024/01/01 16:22:14;;;;;;;;;;;22.70;47.90;;;;;;219238;1280;24279;-48
2024/01/01 16:27:19;;;;;;;;;;;22.60;47.90;;;;;;219060;1280;25591;-45
2024/01/01 16:32:23;;;;;;;;;;;22.70;47.90;;;;;;219254;1283;22532;-48
2024/01/01 16:37:27;;;;;;;;;;;23.00;47.50;;;;;;219098;1273;22569;-46
2024/01/01 16:42:36;;;;;;;;;;;23.40;46.80;;;;;;219336;1280;24230;-46
2024/01/01 16:47:41;;;;;;;;;;;23.60;46.20;;;;;;219096;1286;24231;-50
2024/01/01 16:52:46;;;;;;;;;;;23.70;45.90;;;;;;219356;1285;25342;-51
2024/01/01 16:57:50;;;;;;;;;;;23.60;46.80;;;;;;219750;1280;22537;-51
2024/01/01 17:02:55;;;;;;;;;;;23.60;46.30;;;;;;218896;1281;22866;-52
2024/01/01 17:08:00;;;;;;;;;;;23.60;47.00;;;;;;219742;1286;25385;-52
2024/01/01 17:13:06;;;;;;;;;;;23.50;46.90;;;;;;218812;1288;25521;-52
2024/01/01 17:18:20;;;;;;;;;;;23.30;47.60;;;;;;218860;1285;25946;-56
2024/01/01 17:23:54;;;;;;;;;;;23.30;48.00;;;;;;218555;1289;22643;-62
2024/01/01 17:29:04;;;;;;;;;;;23.30;48.10;;;;;;218703;1286;25452;-54
2024/01/01 17:34:19;;;;;;;;;;;23.30;48.60;;;;;;218250;1289;25214;-57
2024/01/01 17:39:36;;;;;;;;;;;23.70;48.10;;;;;;218917;1273;24307;-53
2024/01/01 17:44:40;;;;;;;;;;;23.90;47.40;;;;;;218716;1291;25201;-56
2024/01/01 17:49:47;;;;;;;;;;;24.10;48.30;;;;;;218401;1286;22521;-58
2024/01/01 17:55:01;;;;;;;;;;;24.00;47.50;;;;;;218459;1290;23013;-55
2024/01/01 18:00:17;;;;;;;;;;;24.00;47.90;;;;;;218343;1291;25340;-57
2024/01/01 18:05:32;;;;;;;;;;;23.90;48.10;;;;;;218493;1285;22650;-53
2024/01/01 18:10:47;;;;;;;;;;;24.00;48.20;;;;;;219197;1286;22621;-57
2024/01/01 18:16:14;;;;;;;;;;;24.00;48.60;;;;;;215321;1295;541981;-57
2024/01/01 18:21:38;;;;;;;;;;;23.90;48.50;;;;;;220163;1276;24236;-55
2024/01/01 18:26:52;;;;;;;;;;;23.80;48.90;;;;;;217648;1281;2835099;-56
2024/01/01 18:32:06;;;;;;;;;;;23.70;48.60;;;;;;220375;1277;22529;-58
2024/01/01 18:37:22;;;;;;;;;;;23.60;48.80;;;;;;220279;1280;26399;-54
2024/01/01 18:42:40;;;;;;;;;;;23.60;48.60;;;;;;220341;1277;22515;-56
2024/01/01 18:47:54;;;;;;;;;;;23.60;48.20;;;;;;219735;1278;24353;-53
2024/01/01 18:53:15;;;;;;;;;;;23.40;48.90;;;;;;219643;1279;25360;-53
2024/01/01 18:58:34;;;;;;;;;;;23.30;48.80;;;;;;219429;1280;22565;-52
2024/01/01 19:03:52;;;;;;;;;;;23.40;48.80;;;;;;219370;1280;22518;-51
2024/01/01 19:09:14;;;;;;;;;;;23.70;49.00;;;;;;219684;1273;25411;-56
2024/01/01 19:14:34;;;;;;;;;;;23.90;48.10;;;;;;219338;1272;23890;-54
2024/01/01 19:19:49;;;;;;;;;;;24.10;47.90;;;;;;219905;1279;24236;-54
2024/01/01 19:25:04;;;;;;;;;;;24.20;48.60;;;;;;219983;1275;25412;-53
2024/01/01 19:30:19;;;;;;;;;;;24.30;49.00;;;;;;220226;1273;22615;-49
2024/01/01 19:35:33;;;;;;;;;;;24.30;50.10;;;;;;220495;1272;22688;-52
2024/01/01 19:40:37;;;;;;;;;;;24.30;50.40;;;;;;223143;1272;22523;-54
2024/01/01 19:45:41;;;;;;;;;;;24.30;49.10;;;;;;220015;1269;24178;-56
2024/01/01 19:50:46;;;;;;;;;;;23.90;49.70;;;;;;220996;1272;22528;-54
2024/01/01 19:55:52;;;;;;;;;;;23.70;50.40;;;;;;220465;1278;22510;-52
2024/01/01 20:00:58;;;;;;;;;;;23.50;50.80;;;;;;220708;1269;22510;-52
2024/01/01 20:06:04;;;;;;;;;;;23.40;50.20;;;;;;220806;1272;24462;-54
2024/01/01 20:11:20;;;;;;;;;;;23.40;50.70;;;;;;221201;1272;22516;-55
2024/01/01 20:16:25;;;;;;;;;;;23.40;51.00;;;;;;220934;1267;22510;-53
2024/01/01 20:21:33;;;;;;;;;;;23.40;51.30;;;;;;223785;1260;24304;-53
2024/01/01 20:26:46;;;;;;;;;;;23.40;50.70;;;;;;221075;1268;24423;-54
2024/01/01 20:31:52;;;;;;;;;;;23.40;50.60;;;;;;221466;1273;22510;-55
2024/01/01 20:36:57;;;;;;;;;;;23.20;50.70;;;;;;221048;1271;22557;-52
2024/01/01 20:42:01;;;;;;;;;;;23.20;51.20;;;;;;220997;1268;23881;-49
2024/01/01 20:47:06;;;;;;;;;;;23.30;50.80;;;;;;221227;1266;22508;-52
2024/01/01 20:52:10;;;;;;;;;;;23.30;51.10;;;;;;221476;1259;22624;-52
2024/01/01 20:57:30;;;;;;;;;;;23.30;51.10;;;;;;221053;1267;24234;-53
2024/01/01 21:02:39;;;;;;;;;;;23.30;50.80;;;;;;221304;1273;24263;-52
2024/01/01 21:07:44;;;;;;;;;;;23.10;51.00;;;;;;221115;1263;24209;-52
2024/01/01 21:12:50;;;;;;;;;;;23.10;51.10;;;;;;221314;1273;23900;-50
2024/01/01 21:17:56;;;;;;;;;;;23.20;51.20;;;;;;221403;1272;24267;-54
2024/01/01 21:23:01;;;;;;;;;;;23.60;50.20;;;;;;221096;1269;22542;-55
2024/01/01 21:28:05;;;;;;;;;;;23.80;49.90;;;;;;221304;1271;26505;-52
2024/01/01 21:33:10;;;;;;;;;;;23.90;49.40;;;;;;221333;1259;24222;-53
2024/01/01 21:38:15;;;;;;;;;;;24.00;50.40;;;;;;221152;1267;23774;-55
2024/01/01 21:43:20;;;;;;;;;;;23.90;49.90;;;;;;221014;1260;24245;-55
2024/01/01 21:48:24;;;;;;;;;;;23.70;54.50;;;;;;221057;1267;22659;-52
2024/01/01 21:53:51;;;;;;;;;;;23.70;54.00;;;;;;221345;1264;22527;-55
2024/01/01 21:58:58;;;;;;;;;;;23.70;54.00;;;;;;221266;1253;22506;-54
2024/01/01 22:04:03;;;;;;;;;;;23.60;53.60;;;;;;221031;1259;22493;-52
2024/01/01 22:09:10;;;;;;;;;;;23.60;54.50;;;;;;221107;1271;24316;-54
2024/01/01 22:14:17;;;;;;;;;;;23.50;53.80;;;;;;221131;1267;24247;-53
2024/01/01 22:19:22;;;;;;;;;;;23.40;54.40;;;;;;220825;1267;22987;-53
2024/01/01 22:24:28;;;;;;;;;;;23.30;54.50;;;;;;221192;1267;22622;-53
2024/01/01 22:29:33;;;;;;;;;;;23.30;54.30;;;;;;221245;1267;23502;-52
2024/01/01 22:34:38;;;;;;;;;;;23.30;54.40;;;;;;221361;1268;22501;-54
2024/01/01 22:39:43;;;;;;;;;;;23.20;54.60;;;;;;221489;1259;25084;-53
2024/01/01 22:44:48;;;;;;;;;;;23.20;55.00;;;;;;221031;1266;22684;-50
2024/01/01 22:49:54;;;;;;;;;;;23.10;55.00;;;;;;221152;1266;25103;-51
2024/01/01 22:55:00;;;;;;;;;;;23.40;54.20;;;;;;221276;1270;24372;-51
2024/01/01 23:00:13;;;;;;;;;;;23.70;53.40;;;;;;221201;1267;24356;-53
2024/01/01 23:05:19;;;;;;;;;;;24.00;52.70;;;;;;221031;1269;23868;-52
2024/01/01 23:10:24;;;;;;;;;;;24.20;52.30;;;;;;221265;1267;22518;-52
2024/01/01 23:15:30;;;;;;;;;;;24.30;51.90;;;;;;221008;1267;25275;-54
2024/01/01 23:20:35;;;;;;;;;;;24.20;52.10;;;;;;221544;1270;24254;-53
2024/01/01 23:25:40;;;;;;;;;;;24.10;52.20;;;;;;221554;1266;23151;-54
2024/01/01 23:30:58;;;;;;;;;;;24.00;52.30;;;;;;221468;1271;24199;-54
2024/01/01 23:36:03;;;;;;;;;;;23.90;52.40;;;;;;221373;1261;22727;-53
2024/01/01 23:41:08;;;;;;;;;;;23.80;52.90;;;;;;221568;1266;24217;-54
2024/01/01 23:46:13;;;;;;;;;;;23.70;52.90;;;;;;221327;1270;22503;-53
2024/01/01 23:51:17;;;;;;;;;;;23.60;53.50;;;;;;221343;1266;26628;-53
2024/01/01 23:56:22;;;;;;;;;;;23.60;53.30;;;;;;221654;1268;25361;-52
